• Join FlightAware (Why Join?)
  • Login
  • US Flag 
04:13AM EDT


 

Airport Tracker/Info


-or-


 

Live Flight TrackerFlight Track Log ✈ DAL2128 ✈ 06-Jul-2013 ✈ KMCO - KDTW

Flight Track Log - Related Links

Times and Time Zones

All times are in EDT time to prevent confusion due to time zone crossing. See the DAL2128 flight status page for this flight to view local times or setup timezone preferences in your user account.

Time Position Orientation Groundspeed Altitude Reporting Facility
EDT Latitude Longitude Course Direction KTS MPH feet Rate Location/Type
02:17PM 28.4000 -81.3000 350° North 177 204 700  Level Orlando TRACON
02:18PM 28.3500 -81.3333 210° Southwest 272 313 3,400 2,640 Climbing Orlando TRACON
02:19PM 28.3333 -81.4167 257° West 284 327 6,600 3,180 Climbing Orlando TRACON
02:20PM 28.7812 -81.3500 North  Level FlightAware Approximate
02:20PM 28.3333 -81.5167 270° West 284 327 9,800  Level Orlando TRACON
02:21PM 28.9049 -81.3643 350° North  Level FlightAware Approximate
02:21PM 28.4000 -81.5500 336° Northwest 322 371 11,500  Level Orlando TRACON
02:22PM 29.0291 -81.3725 350° North  Level FlightAware Approximate
02:23PM 28.6192 -81.5872 352° North 390 449 14,400  Level Jacksonville Center
02:24PM 28.7361 -81.6092 351° North 403 464 16,000 1,680 Climbing Jacksonville Center
02:25PM 28.8575 -81.6339 350° North 417 480 17,800 1,860 Climbing Jacksonville Center
02:26PM 28.9850 -81.6558 351° North 438 504 19,800 1,800 Climbing Jacksonville Center
02:27PM 29.1083 -81.6781 351° North 449 517 21,400 1,500 Climbing Jacksonville Center
02:28PM 29.2339 -81.7050 349° North 455 524 22,900 1,380 Climbing Jacksonville Center
02:29PM 29.3636 -81.7322 350° North 460 529 24,200 1,200 Climbing Jacksonville Center
02:30PM 29.4994 -81.7567 351° North 472 543 25,400 1,380 Climbing Jacksonville Center
02:31PM 29.6333 -81.7814 351° North 477 549 27,000 1,680 Climbing Jacksonville Center
02:32PM 29.7628 -81.7967 354° North 477 549 28,800 1,500 Climbing Jacksonville Center
02:33PM 29.8925 -81.8072 356° North 471 542 30,000 1,080 Climbing Jacksonville Center
02:34PM 30.0197 -81.8178 356° North 466 536 31,000 420 Climbing Jacksonville Center
02:35PM 30.1514 -81.8261 357° North 461 531 30,900 -60 Descending Jacksonville Center
02:36PM 30.2808 -81.8367 356° North 461 531 30,900  Level Jacksonville Center
02:37PM 30.4083 -81.8497 355° North 461 531 30,900  Level Jacksonville Center
02:38PM 30.5358 -81.8603 356° North 467 537 30,900  Level Jacksonville Center
02:39PM 30.6550 -81.8758 354° North 464 534 30,900  Level Jacksonville Center
02:40PM 30.7825 -81.8892 355° North 459 528 30,900  Level Jacksonville Center
02:41PM 30.9078 -81.8997 356° North 459 528 30,900  Level Jacksonville Center
02:44PM 31.2319 -81.9286 356° North 469 540 31,000  Climbing Atlanta Center
02:45PM 31.3572 -81.9428 354° North 462 532 31,000  Level Atlanta Center
02:46PM 31.4869 -81.9544 356° North 462 532 31,000  Level Atlanta Center
02:47PM 31.6144 -81.9661 356° North 462 532 31,000  Level Atlanta Center
02:48PM 31.7439 -81.9753 357° North 462 532 31,000  Level Atlanta Center
02:49PM 31.8714 -81.9869 356° North 462 532 31,000  Level Atlanta Center
02:50PM 31.9989 -81.9989 355° North 456 525 31,000  Level Atlanta Center
02:51PM 32.1203 -82.0181 352° North 456 525 31,000  Level Atlanta Center
02:52PM 32.2458 -82.0397 352° North 451 519 31,000  Level Atlanta Center
02:53PM 32.3694 -82.0692 349° North 445 512 31,000  Level Atlanta Center
02:54PM 32.4931 -82.0933 351° North 450 518 31,000  Level Atlanta Center
02:55PM 32.6189 -82.1228 349° North 450 518 31,000  Level Atlanta Center
02:56PM 32.7444 -82.1494 350° North 450 518 31,000  Level Atlanta Center
02:57PM 32.8700 -82.1764 350° North 450 518 31,000  Level Atlanta Center
02:58PM 32.9917 -82.2111 347° North 450 518 31,000  Level Atlanta Center
02:59PM 33.1153 -82.2431 348° North 450 518 31,000  Level Atlanta Center
03:00PM 33.2411 -82.2803 346° North 450 518 31,000  Level Atlanta Center
03:01PM 33.3586 -82.3253 342° North 469 540 31,000  Level Atlanta Center
03:02PM 33.4781 -82.3603 346° North 464 534 31,000  Level Atlanta Center
03:03PM 33.6050 -82.3378 North 443 510 31,000  Level Atlanta Center
03:04PM 33.7469 -82.3325 North 449 517 31,000  Level Atlanta Center
03:05PM 33.8803 -82.3272 North 466 536 31,000  Level Atlanta Center
03:06PM 34.0078 -82.3247 North 459 528 31,000  Level Atlanta Center
03:07PM 34.1244 -82.3225 North 465 535 31,000  Level Atlanta Center
03:08PM 34.2539 -82.3222 360° North 459 528 31,000  Level Atlanta Center
03:09PM 34.3853 -82.3147 North 459 528 31,000  Level Atlanta Center
03:10PM 34.5144 -82.3044 North 459 528 31,000  Level Atlanta Center
03:11PM 34.6458 -82.2992 North 464 534 31,000  Level Atlanta Center
03:12PM 34.7919 -82.2886 North 464 534 31,000  Level Atlanta Center
03:13PM 34.9233 -82.2806 North 464 534 31,000  Level Atlanta Center
03:14PM 35.0544 -82.2678 North 464 534 31,000  Level Atlanta Center
03:15PM 35.1881 -82.2675 360° North 464 534 31,000  Level Atlanta Center
03:16PM 35.3236 -82.2569 North 483 556 31,000  Level Atlanta Center
03:17PM 35.4444 -82.2492 North 478 550 31,000  Level Atlanta Center
03:18PM 35.5778 -82.2436 North 473 544 31,000 -60 Level Atlanta Center
03:19PM 35.7092 -82.2331 North 473 544 30,900  Descending Atlanta Center
03:20PM 35.8425 -82.2250 North 478 550 31,000  Climbing Atlanta Center
03:21PM 35.9906 -82.2142 North 478 550 31,000  Level Atlanta Center
03:22PM 36.1239 -82.2033 North 478 550 31,000  Level Atlanta Center
03:23PM 36.2300 -82.1983 North 478 550 31,000 -60 Level Atlanta Center
03:24PM 36.3864 -82.1819 North 472 543 30,900  Descending Atlanta Center
03:26PM 36.6931 -82.1636 North 484 557 31,000  Climbing Indianapolis Center
03:27PM 36.8292 -82.1539 North 491 565 31,000  Level Indianapolis Center
03:28PM 36.9628 -82.1442 North 487 560 31,000  Level Indianapolis Center
03:29PM 37.1192 -82.1353 North 485 558 31,000  Level Indianapolis Center
03:30PM 37.2525 -82.1256 North 482 555 31,000  Level Indianapolis Center
03:31PM 37.3881 -82.1181 North 485 558 31,000  Level Indianapolis Center
03:32PM 37.5236 -82.1081 North 488 562 31,000  Level Indianapolis Center
03:33PM 37.6578 -82.0994 North 484 557 31,000  Level Indianapolis Center
03:34PM 37.7933 -82.0906 North 486 559 31,000  Level Indianapolis Center
03:35PM 37.9317 -82.0800 North 485 558 31,000  Level Indianapolis Center
03:36PM 38.0681 -82.0708 North 488 562 31,000  Level Indianapolis Center
03:37PM 38.2039 -82.0625 North 487 560 31,000  Level Indianapolis Center
03:38PM 38.3406 -82.0522 North 488 562 31,000  Level Indianapolis Center
03:40PM 38.5050 -82.0428 North 492 566 31,000  Level Indianapolis Center
03:41PM 38.6425 -82.0333 North 489 563 31,000 -360 Level Indianapolis Center
03:42PM 38.7800 -82.0281 North 488 562 30,300 -540 Descending Indianapolis Center
03:43PM 38.9144 -82.0503 353° North 484 557 30,000 -180 Descending Indianapolis Center
03:44PM 39.0500 -82.0736 352° North 485 558 30,000  Level Indianapolis Center
03:45PM 39.1861 -82.0950 353° North 488 562 30,000  Level Indianapolis Center
03:46PM 39.3222 -82.1172 353° North 489 563 30,000 -60 Level Indianapolis Center
03:47PM 39.4664 -82.1394 353° North 487 560 29,900 -60 Descending Indianapolis Center
03:48PM 39.6019 -82.1617 353° North 487 560 29,900  Level Indianapolis Center
03:49PM 39.7364 -82.1836 353° North 485 558 29,900  Level Indianapolis Center
03:50PM 39.8719 -82.2058 353° North 486 559 29,900  Level Indianapolis Center
03:51PM 40.0100 -82.1858 North 498 573 30,000  Climbing Indianapolis Center
03:52PM 40.1472 -82.1556 10° North 497 572 29,900  Descending Indianapolis Center
03:53PM 40.2914 -82.1356 North 492 566 30,000  Climbing Indianapolis Center
03:54PM 40.4264 -82.1661 350° North 487 560 30,000  Level Indianapolis Center
03:55PM 40.5547 -82.2236 341° North 482 555 30,000 -120 Level Indianapolis Center
03:56PM 40.6819 -82.2828 341° North 480 552 29,800 -720 Descending Indianapolis Center
03:57PM 40.8086 -82.3439 340° North 477 549 28,600 -1,080 Descending Indianapolis Center
03:58PM 40.9361 -82.4028 341° North 478 550 27,700 -1,920 Descending Indianapolis Center
03:59PM 41.0625 -82.4625 340° North 474 545 24,800 -2,580 Descending Indianapolis Center
04:00PM 41.1833 -82.5181 341° North 455 524 22,500 -2,400 Descending Indianapolis Center
04:01PM 41.2989 -82.5731 340° North 439 505 20,000 -2,340 Descending Indianapolis Center
04:02PM 41.4092 -82.6272 340° North 421 484 17,800 -2,640 Descending Indianapolis Center
04:03PM 41.5361 -82.6914 339° North 410 472 14,500 -2,760 Descending Cleveland Center
04:04PM 41.6414 -82.7419 340° North 405 466 12,100 -1,620 Descending Cleveland Center
04:05PM 41.7056 -82.7775 338° Northwest 401 461 11,900 -180 Descending Cleveland Center
04:06PM 41.7872 -82.8611 323° Northwest 336 387 11,900 -480 Level Cleveland Center
04:07PM 41.8525 -82.9361 319° Northwest 306 352 11,000 -540 Descending Cleveland Center
04:08PM 41.9175 -83.0136 318° Northwest 309 356 10,900  Descending Cleveland Center
04:09PM 41.9886 -83.1003 318° Northwest 305 351 11,000  Climbing Cleveland Center
04:10PM 42.0575 -83.1842 318° Northwest 305 351 10,900  Descending Cleveland Center
04:11PM 42.1247 -83.2625 319° Northwest 305 351 11,000 -300 Climbing Cleveland Center
04:12PM 42.1850 -83.2622 360° North 238 274 10,400 -1,140 Descending Cleveland Center
04:13PM 42.2489 -83.2117 30° Northeast 234 269 8,800 -1,440 Descending Cleveland Center
04:14PM 42.2900 -83.1431 51° Northeast 231 266 7,400 -1,380 Descending Cleveland Center
04:15PM 42.3450 -83.1031 28° Northeast 223 257 6,000 -1,380 Descending Cleveland Center
04:16PM 42.3836 -83.1497 318° Northwest 200 230 4,800 -1,320 Descending Cleveland Center